sensor_id;sensor_type;location;lat;lon;timestamp;P1;durP1;ratioP1;P2;durP2;ratioP2
54743;SDS011;40639;53.170;6.728;2024-02-15T00:02:22;42.75;;;15.10;;
54743;SDS011;40639;53.170;6.728;2024-02-15T00:04:49;33.05;;;13.85;;
54743;SDS011;40639;53.170;6.728;2024-02-15T00:07:15;33.05;;;13.35;;
54743;SDS011;40639;53.170;6.728;2024-02-15T00:09:41;36.38;;;15.13;;
54743;SDS011;40639;53.170;6.728;2024-02-15T00:12:07;31.88;;;14.23;;
54743;SDS011;40639;53.170;6.728;2024-02-15T00:14:33;35.30;;;14.70;;
54743;SDS011;40639;53.170;6.728;2024-02-15T00:17:00;41.42;;;14.38;;
54743;SDS011;40639;53.170;6.728;2024-02-15T00:19:27;31.73;;;13.80;;
54743;SDS011;40639;53.170;6.728;2024-02-15T00:21:55;37.65;;;14.52;;
54743;SDS011;40639;53.170;6.728;2024-02-15T00:24:21;37.80;;;14.05;;
54743;SDS011;40639;53.170;6.728;2024-02-15T00:26:49;31.77;;;15.00;;
54743;SDS011;40639;53.170;6.728;2024-02-15T00:29:15;32.20;;;13.63;;
54743;SDS011;40639;53.170;6.728;2024-02-15T00:31:41;46.65;;;15.40;;
54743;SDS011;40639;53.170;6.728;2024-02-15T00:34:07;30.10;;;13.95;;
54743;SDS011;40639;53.170;6.728;2024-02-15T00:36:33;32.58;;;13.23;;
54743;SDS011;40639;53.170;6.728;2024-02-15T00:38:59;31.35;;;15.15;;
54743;SDS011;40639;53.170;6.728;2024-02-15T00:41:26;34.00;;;14.15;;
54743;SDS011;40639;53.170;6.728;2024-02-15T00:43:53;34.40;;;14.43;;
54743;SDS011;40639;53.170;6.728;2024-02-15T00:46:19;34.75;;;14.95;;
54743;SDS011;40639;53.170;6.728;2024-02-15T00:48:45;35.28;;;14.30;;
54743;SDS011;40639;53.170;6.728;2024-02-15T00:51:12;33.60;;;13.95;;
54743;SDS011;40639;53.170;6.728;2024-02-15T00:53:38;32.47;;;13.88;;
54743;SDS011;40639;53.170;6.728;2024-02-15T00:56:04;32.15;;;13.45;;
54743;SDS011;40639;53.170;6.728;2024-02-15T00:58:30;33.33;;;13.57;;
54743;SDS011;40639;53.170;6.728;2024-02-15T01:00:56;46.30;;;14.60;;
54743;SDS011;40639;53.170;6.728;2024-02-15T01:03:23;35.72;;;13.95;;
54743;SDS011;40639;53.170;6.728;2024-02-15T01:05:49;34.58;;;13.73;;
54743;SDS011;40639;53.170;6.728;2024-02-15T01:08:16;42.20;;;15.45;;
54743;SDS011;40639;53.170;6.728;2024-02-15T01:10:42;36.10;;;14.45;;
54743;SDS011;40639;53.170;6.728;2024-02-15T01:13:08;35.25;;;13.60;;
54743;SDS011;40639;53.170;6.728;2024-02-15T01:15:35;34.95;;;15.07;;
54743;SDS011;40639;53.170;6.728;2024-02-15T01:18:02;36.90;;;14.38;;
54743;SDS011;40639;53.170;6.728;2024-02-15T01:20:28;35.33;;;14.25;;
54743;SDS011;40639;53.170;6.728;2024-02-15T01:22:55;42.05;;;14.63;;
54743;SDS011;40639;53.170;6.728;2024-02-15T01:25:21;34.30;;;12.52;;
54743;SDS011;40639;53.170;6.728;2024-02-15T01:27:47;31.88;;;12.40;;
54743;SDS011;40639;53.170;6.728;2024-02-15T01:30:14;31.02;;;13.80;;
54743;SDS011;40639;53.170;6.728;2024-02-15T01:32:40;33.25;;;13.50;;
54743;SDS011;40639;53.170;6.728;2024-02-15T01:35:07;32.70;;;12.90;;
54743;SDS011;40639;53.170;6.728;2024-02-15T01:37:35;34.97;;;13.27;;
54743;SDS011;40639;53.170;6.728;2024-02-15T01:40:02;25.83;;;11.30;;
54743;SDS011;40639;53.170;6.728;2024-02-15T01:42:28;31.30;;;13.18;;
54743;SDS011;40639;53.170;6.728;2024-02-15T01:44:54;24.85;;;11.80;;
54743;SDS011;40639;53.170;6.728;2024-02-15T01:47:20;27.90;;;11.98;;
54743;SDS011;40639;53.170;6.728;2024-02-15T01:49:47;26.48;;;12.32;;
54743;SDS011;40639;53.170;6.728;2024-02-15T01:52:14;30.27;;;12.45;;
54743;SDS011;40639;53.170;6.728;2024-02-15T01:54:42;27.63;;;12.93;;
54743;SDS011;40639;53.170;6.728;2024-02-15T01:57:08;25.05;;;12.18;;
54743;SDS011;40639;53.170;6.728;2024-02-15T01:59:34;25.42;;;11.32;;
54743;SDS011;40639;53.170;6.728;2024-02-15T02:02:02;23.40;;;10.88;;
54743;SDS011;40639;53.170;6.728;2024-02-15T02:04:28;19.52;;;11.38;;
54743;SDS011;40639;53.170;6.728;2024-02-15T02:06:57;25.55;;;10.90;;
54743;SDS011;40639;53.170;6.728;2024-02-15T02:09:24;20.38;;;10.27;;
54743;SDS011;40639;53.170;6.728;2024-02-15T02:11:51;23.40;;;10.23;;
54743;SDS011;40639;53.170;6.728;2024-02-15T02:14:17;18.00;;;9.10;;
54743;SDS011;40639;53.170;6.728;2024-02-15T02:16:45;20.50;;;10.25;;
54743;SDS011;40639;53.170;6.728;2024-02-15T02:19:11;22.30;;;10.18;;
54743;SDS011;40639;53.170;6.728;2024-02-15T02:21:38;25.25;;;10.90;;
54743;SDS011;40639;53.170;6.728;2024-02-15T02:24:07;20.63;;;8.93;;
54743;SDS011;40639;53.170;6.728;2024-02-15T02:26:34;19.52;;;9.55;;
54743;SDS011;40639;53.170;6.728;2024-02-15T02:29:00;20.75;;;9.35;;
54743;SDS011;40639;53.170;6.728;2024-02-15T02:31:36;15.85;;;8.57;;
54743;SDS011;40639;53.170;6.728;2024-02-15T02:34:02;17.33;;;8.00;;
54743;SDS011;40639;53.170;6.728;2024-02-15T02:36:29;18.52;;;7.82;;
54743;SDS011;40639;53.170;6.728;2024-02-15T02:38:55;17.35;;;7.95;;
54743;SDS011;40639;53.170;6.728;2024-02-15T02:41:25;21.08;;;8.85;;
54743;SDS011;40639;53.170;6.728;2024-02-15T02:43:53;15.25;;;7.63;;
54743;SDS011;40639;53.170;6.728;2024-02-15T02:46:19;19.50;;;7.60;;
54743;SDS011;40639;53.170;6.728;2024-02-15T02:48:46;17.90;;;8.00;;
54743;SDS011;40639;53.170;6.728;2024-02-15T02:51:12;15.85;;;6.80;;
54743;SDS011;40639;53.170;6.728;2024-02-15T02:53:38;17.15;;;6.90;;
54743;SDS011;40639;53.170;6.728;2024-02-15T02:56:04;17.35;;;7.32;;
54743;SDS011;40639;53.170;6.728;2024-02-15T02:58:33;12.68;;;6.00;;
54743;SDS011;40639;53.170;6.728;2024-02-15T03:00:59;12.95;;;6.20;;
54743;SDS011;40639;53.170;6.728;2024-02-15T03:03:26;15.48;;;6.60;;
54743;SDS011;40639;53.170;6.728;2024-02-15T03:05:52;20.60;;;7.00;;
54743;SDS011;40639;53.170;6.728;2024-02-15T03:08:19;17.17;;;6.28;;
54743;SDS011;40639;53.170;6.728;2024-02-15T03:10:45;16.25;;;6.75;;
54743;SDS011;40639;53.170;6.728;2024-02-15T03:13:12;12.77;;;6.35;;
54743;SDS011;40639;53.170;6.728;2024-02-15T03:15:38;17.00;;;6.50;;
54743;SDS011;40639;53.170;6.728;2024-02-15T03:18:06;17.10;;;6.95;;
54743;SDS011;40639;53.170;6.728;2024-02-15T03:20:33;15.98;;;6.78;;
54743;SDS011;40639;53.170;6.728;2024-02-15T03:23:00;13.93;;;6.63;;
54743;SDS011;40639;53.170;6.728;2024-02-15T03:25:28;18.38;;;6.07;;
54743;SDS011;40639;53.170;6.728;2024-02-15T03:27:55;18.08;;;6.28;;
54743;SDS011;40639;53.170;6.728;2024-02-15T03:30:22;14.77;;;6.32;;
54743;SDS011;40639;53.170;6.728;2024-02-15T03:32:51;16.73;;;6.72;;
54743;SDS011;40639;53.170;6.728;2024-02-15T03:35:18;15.85;;;6.57;;
54743;SDS011;40639;53.170;6.728;2024-02-15T03:37:44;13.23;;;6.25;;
54743;SDS011;40639;53.170;6.728;2024-02-15T03:40:10;19.65;;;6.85;;
54743;SDS011;40639;53.170;6.728;2024-02-15T03:42:36;21.38;;;7.80;;
54743;SDS011;40639;53.170;6.728;2024-02-15T03:45:03;22.83;;;7.70;;
54743;SDS011;40639;53.170;6.728;2024-02-15T03:47:34;23.85;;;7.72;;
54743;SDS011;40639;53.170;6.728;2024-02-15T03:50:04;19.25;;;7.05;;
54743;SDS011;40639;53.170;6.728;2024-02-15T03:52:30;17.98;;;7.40;;
54743;SDS011;40639;53.170;6.728;2024-02-15T03:54:57;20.40;;;8.07;;
54743;SDS011;40639;53.170;6.728;2024-02-15T03:57:26;20.52;;;7.40;;
54743;SDS011;40639;53.170;6.728;2024-02-15T03:59:53;27.92;;;8.40;;
54743;SDS011;40639;53.170;6.728;2024-02-15T04:02:20;26.25;;;7.75;;
54743;SDS011;40639;53.170;6.728;2024-02-15T04:04:48;20.08;;;7.75;;
54743;SDS011;40639;53.170;6.728;2024-02-15T04:07:14;23.88;;;7.55;;
54743;SDS011;40639;53.170;6.728;2024-02-15T04:09:44;21.67;;;6.88;;
54743;SDS011;40639;53.170;6.728;2024-02-15T04:12:11;18.50;;;6.40;;
54743;SDS011;40639;53.170;6.728;2024-02-15T04:14:39;19.33;;;7.28;;
54743;SDS011;40639;53.170;6.728;2024-02-15T04:17:06;26.73;;;6.70;;
54743;SDS011;40639;53.170;6.728;2024-02-15T04:19:32;18.50;;;6.90;;
54743;SDS011;40639;53.170;6.728;2024-02-15T04:21:59;18.40;;;7.13;;
54743;SDS011;40639;53.170;6.728;2024-02-15T04:24:33;18.83;;;7.55;;
54743;SDS011;40639;53.170;6.728;2024-02-15T04:26:59;29.15;;;8.98;;
54743;SDS011;40639;53.170;6.728;2024-02-15T04:29:25;19.50;;;7.90;;
54743;SDS011;40639;53.170;6.728;2024-02-15T04:31:51;17.38;;;8.20;;
54743;SDS011;40639;53.170;6.728;2024-02-15T04:34:19;22.90;;;8.52;;
54743;SDS011;40639;53.170;6.728;2024-02-15T04:36:46;20.10;;;8.80;;
54743;SDS011;40639;53.170;6.728;2024-02-15T04:39:17;21.65;;;8.60;;
54743;SDS011;40639;53.170;6.728;2024-02-15T04:41:51;28.38;;;10.60;;
54743;SDS011;40639;53.170;6.728;2024-02-15T04:44:17;25.27;;;9.65;;
54743;SDS011;40639;53.170;6.728;2024-02-15T04:46:48;26.10;;;11.10;;
54743;SDS011;40639;53.170;6.728;2024-02-15T04:49:15;23.60;;;11.07;;
54743;SDS011;40639;53.170;6.728;2024-02-15T04:51:41;26.40;;;12.02;;
54743;SDS011;40639;53.170;6.728;2024-02-15T04:54:09;30.15;;;12.57;;
54743;SDS011;40639;53.170;6.728;2024-02-15T04:56:38;25.90;;;12.48;;
54743;SDS011;40639;53.170;6.728;2024-02-15T04:59:05;30.25;;;13.40;;
54743;SDS011;40639;53.170;6.728;2024-02-15T05:01:34;23.17;;;11.90;;
54743;SDS011;40639;53.170;6.728;2024-02-15T05:04:00;27.10;;;13.73;;
54743;SDS011;40639;53.170;6.728;2024-02-15T05:06:31;24.55;;;13.55;;
54743;SDS011;40639;53.170;6.728;2024-02-15T05:08:57;27.52;;;15.48;;
54743;SDS011;40639;53.170;6.728;2024-02-15T05:11:25;28.83;;;14.27;;
54743;SDS011;40639;53.170;6.728;2024-02-15T05:13:51;23.10;;;12.60;;
54743;SDS011;40639;53.170;6.728;2024-02-15T05:16:17;30.38;;;14.88;;
54743;SDS011;40639;53.170;6.728;2024-02-15T05:18:44;28.92;;;15.13;;
54743;SDS011;40639;53.170;6.728;2024-02-15T05:21:13;28.13;;;13.85;;
54743;SDS011;40639;53.170;6.728;2024-02-15T05:23:40;30.88;;;15.23;;
54743;SDS011;40639;53.170;6.728;2024-02-15T05:26:08;29.35;;;14.25;;
54743;SDS011;40639;53.170;6.728;2024-02-15T05:28:34;31.50;;;14.05;;
54743;SDS011;40639;53.170;6.728;2024-02-15T05:31:13;26.30;;;14.07;;
54743;SDS011;40639;53.170;6.728;2024-02-15T05:33:42;25.75;;;13.85;;
54743;SDS011;40639;53.170;6.728;2024-02-15T05:36:12;26.88;;;13.63;;
54743;SDS011;40639;53.170;6.728;2024-02-15T05:38:41;30.10;;;14.77;;
54743;SDS011;40639;53.170;6.728;2024-02-15T05:41:11;29.70;;;14.70;;
54743;SDS011;40639;53.170;6.728;2024-02-15T05:43:38;25.13;;;13.82;;
54743;SDS011;40639;53.170;6.728;2024-02-15T05:46:05;30.13;;;15.45;;
54743;SDS011;40639;53.170;6.728;2024-02-15T05:48:32;27.73;;;14.40;;
54743;SDS011;40639;53.170;6.728;2024-02-15T05:51:02;28.67;;;15.18;;
54743;SDS011;40639;53.170;6.728;2024-02-15T05:53:28;29.27;;;14.68;;
54743;SDS011;40639;53.170;6.728;2024-02-15T05:55:54;28.42;;;13.88;;
54743;SDS011;40639;53.170;6.728;2024-02-15T05:58:23;27.40;;;14.32;;
54743;SDS011;40639;53.170;6.728;2024-02-15T06:00:49;36.08;;;16.05;;
54743;SDS011;40639;53.170;6.728;2024-02-15T06:03:15;28.98;;;15.77;;
54743;SDS011;40639;53.170;6.728;2024-02-15T06:05:42;34.28;;;16.55;;
54743;SDS011;40639;53.170;6.728;2024-02-15T06:08:09;28.80;;;15.48;;
54743;SDS011;40639;53.170;6.728;2024-02-15T06:10:37;32.10;;;16.02;;
54743;SDS011;40639;53.170;6.728;2024-02-15T06:13:04;27.65;;;15.75;;
54743;SDS011;40639;53.170;6.728;2024-02-15T06:15:30;31.98;;;15.77;;
54743;SDS011;40639;53.170;6.728;2024-02-15T06:17:57;32.95;;;16.35;;
54743;SDS011;40639;53.170;6.728;2024-02-15T06:20:23;31.85;;;16.90;;
54743;SDS011;40639;53.170;6.728;2024-02-15T06:22:50;34.25;;;16.92;;
54743;SDS011;40639;53.170;6.728;2024-02-15T06:25:17;32.55;;;16.98;;
54743;SDS011;40639;53.170;6.728;2024-02-15T06:27:46;33.63;;;18.30;;
54743;SDS011;40639;53.170;6.728;2024-02-15T06:30:14;38.22;;;17.15;;
54743;SDS011;40639;53.170;6.728;2024-02-15T06:32:58;33.10;;;17.08;;
54743;SDS011;40639;53.170;6.728;2024-02-15T06:35:43;32.53;;;17.55;;
54743;SDS011;40639;53.170;6.728;2024-02-15T06:38:28;36.80;;;17.25;;
54743;SDS011;40639;53.170;6.728;2024-02-15T06:41:13;33.17;;;17.58;;
54743;SDS011;40639;53.170;6.728;2024-02-15T06:43:39;34.28;;;17.50;;
54743;SDS011;40639;53.170;6.728;2024-02-15T06:46:06;33.45;;;17.17;;
54743;SDS011;40639;53.170;6.728;2024-02-15T06:48:33;31.17;;;17.70;;
54743;SDS011;40639;53.170;6.728;2024-02-15T06:50:59;33.53;;;17.85;;
54743;SDS011;40639;53.170;6.728;2024-02-15T06:53:25;32.90;;;17.63;;
54743;SDS011;40639;53.170;6.728;2024-02-15T06:55:51;31.98;;;18.20;;
54743;SDS011;40639;53.170;6.728;2024-02-15T06:58:17;37.45;;;17.90;;
54743;SDS011;40639;53.170;6.728;2024-02-15T07:00:45;32.70;;;18.27;;
54743;SDS011;40639;53.170;6.728;2024-02-15T07:03:11;33.78;;;18.67;;
54743;SDS011;40639;53.170;6.728;2024-02-15T07:05:37;31.83;;;19.02;;
54743;SDS011;40639;53.170;6.728;2024-02-15T07:08:04;38.55;;;18.63;;
54743;SDS011;40639;53.170;6.728;2024-02-15T07:10:31;36.40;;;17.65;;
54743;SDS011;40639;53.170;6.728;2024-02-15T07:12:57;33.78;;;18.50;;
54743;SDS011;40639;53.170;6.728;2024-02-15T07:15:23;35.90;;;17.70;;
54743;SDS011;40639;53.170;6.728;2024-02-15T07:17:49;36.45;;;19.52;;
54743;SDS011;40639;53.170;6.728;2024-02-15T07:20:19;36.75;;;17.42;;
54743;SDS011;40639;53.170;6.728;2024-02-15T07:22:48;39.90;;;19.35;;
54743;SDS011;40639;53.170;6.728;2024-02-15T07:25:14;31.13;;;17.25;;
54743;SDS011;40639;53.170;6.728;2024-02-15T07:27:40;29.80;;;16.95;;
54743;SDS011;40639;53.170;6.728;2024-02-15T07:30:07;32.20;;;18.20;;
54743;SDS011;40639;53.170;6.728;2024-02-15T07:32:33;32.90;;;16.73;;
54743;SDS011;40639;53.170;6.728;2024-02-15T07:35:00;35.03;;;17.88;;
54743;SDS011;40639;53.170;6.728;2024-02-15T07:37:26;31.80;;;17.13;;
54743;SDS011;40639;53.170;6.728;2024-02-15T07:39:54;29.20;;;16.80;;
54743;SDS011;40639;53.170;6.728;2024-02-15T07:42:20;34.40;;;16.27;;
54743;SDS011;40639;53.170;6.728;2024-02-15T07:44:50;36.45;;;16.58;;
54743;SDS011;40639;53.170;6.728;2024-02-15T07:47:18;36.20;;;17.20;;
54743;SDS011;40639;53.170;6.728;2024-02-15T07:49:46;29.25;;;16.83;;
54743;SDS011;40639;53.170;6.728;2024-02-15T07:52:12;36.85;;;17.13;;
54743;SDS011;40639;53.170;6.728;2024-02-15T07:54:38;32.05;;;16.77;;
54743;SDS011;40639;53.170;6.728;2024-02-15T07:57:05;32.25;;;16.27;;
54743;SDS011;40639;53.170;6.728;2024-02-15T07:59:31;35.30;;;16.58;;
54743;SDS011;40639;53.170;6.728;2024-02-15T08:01:57;32.10;;;17.50;;
54743;SDS011;40639;53.170;6.728;2024-02-15T08:04:23;37.38;;;17.33;;
54743;SDS011;40639;53.170;6.728;2024-02-15T08:06:50;35.25;;;16.77;;
54743;SDS011;40639;53.170;6.728;2024-02-15T08:09:19;34.67;;;17.63;;
54743;SDS011;40639;53.170;6.728;2024-02-15T08:11:49;33.35;;;18.05;;
54743;SDS011;40639;53.170;6.728;2024-02-15T08:14:16;30.98;;;16.35;;
54743;SDS011;40639;53.170;6.728;2024-02-15T08:16:42;29.80;;;15.77;;
54743;SDS011;40639;53.170;6.728;2024-02-15T08:19:08;33.65;;;16.25;;
54743;SDS011;40639;53.170;6.728;2024-02-15T08:21:34;29.90;;;16.60;;
54743;SDS011;40639;53.170;6.728;2024-02-15T08:24:04;30.20;;;16.88;;
54743;SDS011;40639;53.170;6.728;2024-02-15T08:26:38;31.42;;;16.15;;
54743;SDS011;40639;53.170;6.728;2024-02-15T08:29:04;35.08;;;15.48;;
54743;SDS011;40639;53.170;6.728;2024-02-15T08:31:34;28.85;;;15.80;;
54743;SDS011;40639;53.170;6.728;2024-02-15T08:34:04;29.00;;;15.18;;
54743;SDS011;40639;53.170;6.728;2024-02-15T08:36:36;29.35;;;14.35;;
54743;SDS011;40639;53.170;6.728;2024-02-15T08:39:04;26.27;;;13.43;;
54743;SDS011;40639;53.170;6.728;2024-02-15T08:41:33;27.45;;;15.02;;
54743;SDS011;40639;53.170;6.728;2024-02-15T08:43:59;25.35;;;14.18;;
54743;SDS011;40639;53.170;6.728;2024-02-15T08:46:26;27.35;;;13.38;;
54743;SDS011;40639;53.170;6.728;2024-02-15T08:48:52;26.98;;;14.50;;
54743;SDS011;40639;53.170;6.728;2024-02-15T08:51:18;22.02;;;13.60;;
54743;SDS011;40639;53.170;6.728;2024-02-15T08:53:46;28.30;;;13.82;;
54743;SDS011;40639;53.170;6.728;2024-02-15T08:56:12;25.30;;;13.48;;
54743;SDS011;40639;53.170;6.728;2024-02-15T08:58:38;26.90;;;13.15;;
54743;SDS011;40639;53.170;6.728;2024-02-15T09:01:05;22.27;;;13.35;;
54743;SDS011;40639;53.170;6.728;2024-02-15T09:03:33;23.00;;;13.38;;
54743;SDS011;40639;53.170;6.728;2024-02-15T09:05:59;28.33;;;13.32;;
54743;SDS011;40639;53.170;6.728;2024-02-15T09:08:32;25.38;;;12.35;;
54743;SDS011;40639;53.170;6.728;2024-02-15T09:11:04;22.05;;;12.85;;
54743;SDS011;40639;53.170;6.728;2024-02-15T09:13:30;19.85;;;12.07;;
54743;SDS011;40639;53.170;6.728;2024-02-15T09:16:05;23.48;;;12.98;;
54743;SDS011;40639;53.170;6.728;2024-02-15T09:18:34;20.92;;;12.00;;
54743;SDS011;40639;53.170;6.728;2024-02-15T09:21:00;19.30;;;11.88;;
54743;SDS011;40639;53.170;6.728;2024-02-15T09:23:31;20.30;;;11.80;;
54743;SDS011;40639;53.170;6.728;2024-02-15T09:25:57;24.00;;;12.45;;
54743;SDS011;40639;53.170;6.728;2024-02-15T09:28:24;22.05;;;11.65;;
54743;SDS011;40639;53.170;6.728;2024-02-15T09:30:50;21.63;;;11.77;;
54743;SDS011;40639;53.170;6.728;2024-02-15T09:33:17;22.77;;;12.02;;
54743;SDS011;40639;53.170;6.728;2024-02-15T09:35:44;22.23;;;11.90;;
54743;SDS011;40639;53.170;6.728;2024-02-15T09:38:10;20.73;;;10.50;;
54743;SDS011;40639;53.170;6.728;2024-02-15T09:40:36;21.30;;;11.07;;
54743;SDS011;40639;53.170;6.728;2024-02-15T09:43:03;25.45;;;12.02;;
54743;SDS011;40639;53.170;6.728;2024-02-15T09:45:29;20.38;;;11.20;;
54743;SDS011;40639;53.170;6.728;2024-02-15T09:47:56;20.75;;;12.00;;
54743;SDS011;40639;53.170;6.728;2024-02-15T09:50:29;21.00;;;11.82;;
54743;SDS011;40639;53.170;6.728;2024-02-15T09:52:58;21.70;;;11.45;;
54743;SDS011;40639;53.170;6.728;2024-02-15T09:55:27;21.65;;;11.48;;
54743;SDS011;40639;53.170;6.728;2024-02-15T09:57:54;19.13;;;11.43;;
54743;SDS011;40639;53.170;6.728;2024-02-15T10:00:20;19.67;;;11.18;;
54743;SDS011;40639;53.170;6.728;2024-02-15T10:02:50;20.02;;;11.38;;
54743;SDS011;40639;53.170;6.728;2024-02-15T10:05:17;21.52;;;11.00;;
54743;SDS011;40639;53.170;6.728;2024-02-15T10:07:44;19.48;;;10.90;;
54743;SDS011;40639;53.170;6.728;2024-02-15T10:10:14;18.73;;;10.57;;
54743;SDS011;40639;53.170;6.728;2024-02-15T10:15:35;19.02;;;10.00;;
54743;SDS011;40639;53.170;6.728;2024-02-15T10:18:02;18.30;;;10.88;;
54743;SDS011;40639;53.170;6.728;2024-02-15T10:20:28;20.50;;;11.05;;
54743;SDS011;40639;53.170;6.728;2024-02-15T10:25:25;15.88;;;9.98;;
54743;SDS011;40639;53.170;6.728;2024-02-15T10:27:53;17.10;;;10.10;;
54743;SDS011;40639;53.170;6.728;2024-02-15T10:30:27;15.33;;;9.80;;
54743;SDS011;40639;53.170;6.728;2024-02-15T10:32:54;14.98;;;9.15;;
54743;SDS011;40639;53.170;6.728;2024-02-15T10:35:22;17.15;;;9.60;;
54743;SDS011;40639;53.170;6.728;2024-02-15T10:37:49;14.82;;;8.43;;
54743;SDS011;40639;53.170;6.728;2024-02-15T10:40:19;14.27;;;8.65;;
54743;SDS011;40639;53.170;6.728;2024-02-15T10:42:46;13.07;;;7.82;;
54743;SDS011;40639;53.170;6.728;2024-02-15T10:45:14;11.15;;;7.45;;
54743;SDS011;40639;53.170;6.728;2024-02-15T10:47:43;12.93;;;8.07;;
54743;SDS011;40639;53.170;6.728;2024-02-15T10:50:11;13.63;;;7.60;;
54743;SDS011;40639;53.170;6.728;2024-02-15T10:52:37;12.88;;;8.15;;
54743;SDS011;40639;53.170;6.728;2024-02-15T10:55:06;10.70;;;6.97;;
54743;SDS011;40639;53.170;6.728;2024-02-15T10:57:39;13.98;;;7.03;;
54743;SDS011;40639;53.170;6.728;2024-02-15T11:00:05;10.48;;;6.22;;
54743;SDS011;40639;53.170;6.728;2024-02-15T11:02:43;10.90;;;6.90;;
54743;SDS011;40639;53.170;6.728;2024-02-15T11:07:39;11.70;;;6.13;;
54743;SDS011;40639;53.170;6.728;2024-02-15T11:10:06;9.23;;;6.10;;
54743;SDS011;40639;53.170;6.728;2024-02-15T11:12:35;9.40;;;5.63;;
54743;SDS011;40639;53.170;6.728;2024-02-15T11:15:02;11.18;;;6.10;;
54743;SDS011;40639;53.170;6.728;2024-02-15T11:20:05;8.93;;;5.40;;
54743;SDS011;40639;53.170;6.728;2024-02-15T11:22:39;9.43;;;6.07;;
54743;SDS011;40639;53.170;6.728;2024-02-15T11:25:07;11.07;;;6.38;;
54743;SDS011;40639;53.170;6.728;2024-02-15T11:27:36;10.50;;;6.25;;
54743;SDS011;40639;53.170;6.728;2024-02-15T11:30:04;9.23;;;5.53;;
54743;SDS011;40639;53.170;6.728;2024-02-15T11:40:15;8.73;;;5.65;;
54743;SDS011;40639;53.170;6.728;2024-02-15T11:42:42;8.25;;;5.40;;
54743;SDS011;40639;53.170;6.728;2024-02-15T11:45:08;8.43;;;5.15;;
54743;SDS011;40639;53.170;6.728;2024-02-15T11:47:39;7.00;;;4.47;;
54743;SDS011;40639;53.170;6.728;2024-02-15T11:50:07;8.07;;;4.60;;
54743;SDS011;40639;53.170;6.728;2024-02-15T11:52:37;7.45;;;4.30;;
54743;SDS011;40639;53.170;6.728;2024-02-15T11:55:05;7.10;;;4.35;;
54743;SDS011;40639;53.170;6.728;2024-02-15T11:57:35;5.25;;;3.90;;
54743;SDS011;40639;53.170;6.728;2024-02-15T12:00:22;6.07;;;3.20;;
54743;SDS011;40639;53.170;6.728;2024-02-15T12:03:07;6.53;;;3.60;;
54743;SDS011;40639;53.170;6.728;2024-02-15T12:05:52;7.38;;;3.17;;
54743;SDS011;40639;53.170;6.728;2024-02-15T12:08:36;4.88;;;3.10;;
54743;SDS011;40639;53.170;6.728;2024-02-15T12:11:21;4.00;;;2.65;;
54743;SDS011;40639;53.170;6.728;2024-02-15T12:14:06;4.00;;;2.78;;
54743;SDS011;40639;53.170;6.728;2024-02-15T12:17:01;4.55;;;2.83;;
54743;SDS011;40639;53.170;6.728;2024-02-15T12:19:45;5.35;;;2.90;;
54743;SDS011;40639;53.170;6.728;2024-02-15T12:22:12;4.95;;;2.95;;
54743;SDS011;40639;53.170;6.728;2024-02-15T12:24:38;4.43;;;2.58;;
54743;SDS011;40639;53.170;6.728;2024-02-15T12:27:05;3.78;;;2.47;;
54743;SDS011;40639;53.170;6.728;2024-02-15T12:29:32;3.88;;;2.83;;
54743;SDS011;40639;53.170;6.728;2024-02-15T12:31:58;3.85;;;2.40;;
54743;SDS011;40639;53.170;6.728;2024-02-15T12:34:25;5.10;;;2.60;;
54743;SDS011;40639;53.170;6.728;2024-02-15T12:36:51;4.40;;;2.63;;
54743;SDS011;40639;53.170;6.728;2024-02-15T12:39:30;5.25;;;2.72;;
54743;SDS011;40639;53.170;6.728;2024-02-15T12:41:57;4.75;;;2.53;;
54743;SDS011;40639;53.170;6.728;2024-02-15T12:44:23;2.60;;;2.28;;
54743;SDS011;40639;53.170;6.728;2024-02-15T12:46:55;3.70;;;2.65;;
54743;SDS011;40639;53.170;6.728;2024-02-15T12:51:52;4.75;;;2.70;;
54743;SDS011;40639;53.170;6.728;2024-02-15T12:54:19;4.60;;;2.95;;
54743;SDS011;40639;53.170;6.728;2024-02-15T12:56:49;4.18;;;2.78;;
54743;SDS011;40639;53.170;6.728;2024-02-15T12:59:18;5.13;;;2.83;;
54743;SDS011;40639;53.170;6.728;2024-02-15T13:01:44;5.38;;;3.38;;
54743;SDS011;40639;53.170;6.728;2024-02-15T13:04:26;7.03;;;4.28;;
54743;SDS011;40639;53.170;6.728;2024-02-15T13:06:53;6.25;;;3.75;;
54743;SDS011;40639;53.170;6.728;2024-02-15T13:09:19;5.28;;;3.47;;
54743;SDS011;40639;53.170;6.728;2024-02-15T13:11:47;6.18;;;4.20;;
54743;SDS011;40639;53.170;6.728;2024-02-15T13:14:15;7.18;;;4.60;;
54743;SDS011;40639;53.170;6.728;2024-02-15T13:16:41;8.00;;;5.10;;
54743;SDS011;40639;53.170;6.728;2024-02-15T13:19:09;8.00;;;5.50;;
54743;SDS011;40639;53.170;6.728;2024-02-15T13:21:35;9.05;;;5.80;;
54743;SDS011;40639;53.170;6.728;2024-02-15T13:24:01;9.07;;;5.18;;
54743;SDS011;40639;53.170;6.728;2024-02-15T13:26:33;11.38;;;6.13;;
54743;SDS011;40639;53.170;6.728;2024-02-15T13:28:59;10.50;;;6.05;;
54743;SDS011;40639;53.170;6.728;2024-02-15T13:31:25;11.73;;;6.43;;
54743;SDS011;40639;53.170;6.728;2024-02-15T13:33:52;8.13;;;5.40;;
54743;SDS011;40639;53.170;6.728;2024-02-15T13:36:18;9.18;;;5.90;;
54743;SDS011;40639;53.170;6.728;2024-02-15T13:38:45;10.07;;;6.10;;
54743;SDS011;40639;53.170;6.728;2024-02-15T13:41:12;9.65;;;5.93;;
54743;SDS011;40639;53.170;6.728;2024-02-15T13:43:38;10.23;;;6.63;;
54743;SDS011;40639;53.170;6.728;2024-02-15T13:46:06;9.45;;;6.43;;
54743;SDS011;40639;53.170;6.728;2024-02-15T13:48:32;10.43;;;6.97;;
54743;SDS011;40639;53.170;6.728;2024-02-15T13:50:58;9.80;;;5.78;;
54743;SDS011;40639;53.170;6.728;2024-02-15T13:53:24;9.45;;;6.18;;
54743;SDS011;40639;53.170;6.728;2024-02-15T13:55:51;8.13;;;5.78;;
54743;SDS011;40639;53.170;6.728;2024-02-15T13:58:17;8.60;;;5.80;;
54743;SDS011;40639;53.170;6.728;2024-02-15T14:00:43;11.40;;;5.70;;
54743;SDS011;40639;53.170;6.728;2024-02-15T14:03:10;9.77;;;5.47;;
54743;SDS011;40639;53.170;6.728;2024-02-15T14:05:37;6.88;;;4.70;;
54743;SDS011;40639;53.170;6.728;2024-02-15T14:08:05;8.32;;;5.57;;
54743;SDS011;40639;53.170;6.728;2024-02-15T14:10:33;8.15;;;5.45;;
54743;SDS011;40639;53.170;6.728;2024-02-15T14:13:01;10.18;;;5.93;;
54743;SDS011;40639;53.170;6.728;2024-02-15T14:15:28;10.82;;;5.65;;
54743;SDS011;40639;53.170;6.728;2024-02-15T14:17:55;7.85;;;5.15;;
54743;SDS011;40639;53.170;6.728;2024-02-15T14:20:22;7.85;;;5.07;;
54743;SDS011;40639;53.170;6.728;2024-02-15T14:22:49;9.50;;;5.40;;
54743;SDS011;40639;53.170;6.728;2024-02-15T14:25:20;7.18;;;4.80;;
54743;SDS011;40639;53.170;6.728;2024-02-15T14:27:46;8.90;;;5.30;;
54743;SDS011;40639;53.170;6.728;2024-02-15T14:30:13;7.72;;;5.20;;
54743;SDS011;40639;53.170;6.728;2024-02-15T14:32:58;8.50;;;5.35;;
54743;SDS011;40639;53.170;6.728;2024-02-15T14:35:34;9.60;;;5.80;;
54743;SDS011;40639;53.170;6.728;2024-02-15T14:38:01;8.52;;;5.75;;
54743;SDS011;40639;53.170;6.728;2024-02-15T14:40:30;8.75;;;5.65;;
54743;SDS011;40639;53.170;6.728;2024-02-15T14:42:56;10.73;;;5.95;;
54743;SDS011;40639;53.170;6.728;2024-02-15T14:45:22;12.18;;;6.32;;
54743;SDS011;40639;53.170;6.728;2024-02-15T14:47:48;10.93;;;6.95;;
54743;SDS011;40639;53.170;6.728;2024-02-15T14:50:14;10.10;;;6.38;;
54743;SDS011;40639;53.170;6.728;2024-02-15T14:52:41;12.23;;;6.35;;
54743;SDS011;40639;53.170;6.728;2024-02-15T14:55:07;11.27;;;6.63;;
54743;SDS011;40639;53.170;6.728;2024-02-15T14:57:34;13.65;;;7.30;;